Time;durP1;ratioP1;P1;durP2;ratioP2;P2;SDS_P1;SDS_P2;PMS_P1;PMS_P2;Temp;Humidity;BMP_temperature;BMP_pressure;BME280_temperature;BME280_humidity;BME280_pressure;Samples;Min_cycle;Max_cycle;Signal;HPM_P1;HPM_P2
2021/10/13 00:00:45;;;;;;;;;;;18.50;46.10;;;;;;8235786;28;19914;-49
2021/10/13 00:04:46;;;;;;;;;;;18.40;46.10;;;;;;8235490;28;19929;-49
2021/10/13 00:08:46;;;;;;;;;;;18.40;46.10;;;;;;8235733;28;20352;-48
2021/10/13 00:12:47;;;;;;;;;;;18.40;46.10;;;;;;8235447;28;19921;-49
2021/10/13 00:16:54;;;;;;;;;;;18.50;46.20;;;;;;8235704;28;19945;-48
2021/10/13 00:20:54;;;;;;;;;;;18.40;46.20;;;;;;8236788;28;19932;-49
2021/10/13 00:24:55;;;;;;;;;;;18.50;46.20;;;;;;8235530;28;19920;-49
2021/10/13 00:28:55;;;;;;;;;;;18.40;46.20;;;;;;8235294;28;19921;-48
2021/10/13 00:32:55;;;;;;;;;;;18.40;46.20;;;;;;8234544;28;20371;-49
2021/10/13 00:36:56;;;;;;;;;;;18.40;46.10;;;;;;8235100;28;19914;-49
2021/10/13 00:40:56;;;;;;;;;;;18.40;46.20;;;;;;8234733;28;19918;-48
2021/10/13 00:44:57;;;;;;;;;;;18.40;46.20;;;;;;8232901;28;19918;-53
2021/10/13 00:48:59;;;;;;;;;;;18.50;46.20;;;;;;8233088;28;20279;-52
2021/10/13 00:52:59;;;;;;;;;;;18.40;46.20;;;;;;8233795;28;19976;-49
2021/10/13 00:57:00;;;;;;;;;;;18.40;46.20;;;;;;8233865;28;19914;-48
2021/10/13 01:01:02;;;;;;;;;;;18.40;46.20;;;;;;8234482;28;19910;-48
2021/10/13 01:05:23;;;;;;;;;;;18.40;46.20;;;;;;8233183;28;19922;-49
2021/10/13 01:09:25;;;;;;;;;;;18.40;46.20;;;;;;8233073;28;19953;-49
2021/10/13 01:13:37;;;;;;;;;;;18.40;46.20;;;;;;8233622;28;20287;-49
2021/10/13 01:17:41;;;;;;;;;;;18.40;46.20;;;;;;8233678;28;19914;-50
2021/10/13 01:21:41;;;;;;;;;;;18.40;46.20;;;;;;8233938;28;20291;-48
2021/10/13 01:25:41;;;;;;;;;;;18.40;46.20;;;;;;8233343;28;20000;-52
2021/10/13 01:29:43;;;;;;;;;;;18.40;46.20;;;;;;8232901;28;19914;-49
2021/10/13 01:33:57;;;;;;;;;;;18.40;46.20;;;;;;8233439;28;19985;-49
2021/10/13 01:38:01;;;;;;;;;;;18.40;46.20;;;;;;8233419;28;20381;-49
2021/10/13 01:42:05;;;;;;;;;;;18.40;46.20;;;;;;8233428;28;19952;-48
2021/10/13 01:46:06;;;;;;;;;;;18.40;46.30;;;;;;8233317;28;19918;-48
2021/10/13 01:50:08;;;;;;;;;;;18.40;46.30;;;;;;8233265;28;19914;-48
2021/10/13 01:54:09;;;;;;;;;;;18.40;46.30;;;;;;8232988;28;20318;-51
2021/10/13 01:58:10;;;;;;;;;;;18.30;46.20;;;;;;8233520;28;19967;-49
2021/10/13 02:02:12;;;;;;;;;;;18.40;46.30;;;;;;8232542;28;19928;-48
2021/10/13 02:06:13;;;;;;;;;;;18.30;46.30;;;;;;8236820;28;19914;-49
2021/10/13 02:10:16;;;;;;;;;;;18.30;46.30;;;;;;8238912;28;20363;-48
2021/10/13 02:14:17;;;;;;;;;;;18.30;46.30;;;;;;8237299;28;20004;-48
2021/10/13 02:18:25;;;;;;;;;;;18.30;46.30;;;;;;8239137;28;19921;-49
2021/10/13 02:22:29;;;;;;;;;;;18.30;46.20;;;;;;8238514;28;19922;-48
2021/10/13 02:26:56;;;;;;;;;;;18.30;46.30;;;;;;8238411;28;19920;-49
2021/10/13 02:30:56;;;;;;;;;;;18.30;46.30;;;;;;8238766;28;19921;-48
2021/10/13 02:34:57;;;;;;;;;;;18.30;46.30;;;;;;8238937;28;19997;-48
2021/10/13 02:38:57;;;;;;;;;;;18.30;46.30;;;;;;8238148;28;19914;-50
2021/10/13 02:42:58;;;;;;;;;;;18.30;46.30;;;;;;8238243;28;20005;-50
2021/10/13 02:47:04;;;;;;;;;;;18.30;46.30;;;;;;8237894;28;20018;-48
2021/10/13 02:51:14;;;;;;;;;;;18.30;46.30;;;;;;8237364;28;19914;-47
2021/10/13 02:55:14;;;;;;;;;;;18.30;46.30;;;;;;8238283;28;20371;-50
2021/10/13 02:59:23;;;;;;;;;;;18.30;46.30;;;;;;8237666;28;19918;-50
2021/10/13 03:03:23;;;;;;;;;;;18.30;46.30;;;;;;8237042;28;19922;-47
2021/10/13 03:07:26;;;;;;;;;;;18.30;46.30;;;;;;8237575;28;19921;-47
2021/10/13 03:11:28;;;;;;;;;;;18.30;46.30;;;;;;8237272;28;19921;-47
2021/10/13 03:15:30;;;;;;;;;;;18.30;46.30;;;;;;8237255;28;20375;-49
2021/10/13 03:19:34;;;;;;;;;;;18.30;46.30;;;;;;8236848;28;19996;-49
2021/10/13 03:23:34;;;;;;;;;;;18.30;46.40;;;;;;8236878;28;19929;-48
2021/10/13 03:27:35;;;;;;;;;;;18.30;46.30;;;;;;8236303;28;19914;-47
2021/10/13 03:31:35;;;;;;;;;;;18.30;46.30;;;;;;8237358;28;19921;-49
2021/10/13 03:35:36;;;;;;;;;;;18.30;46.30;;;;;;8236606;28;19914;-48
2021/10/13 03:39:37;;;;;;;;;;;18.30;46.30;;;;;;8235910;28;19921;-49
2021/10/13 03:43:47;;;;;;;;;;;18.30;46.30;;;;;;8236387;28;20272;-49
2021/10/13 03:47:48;;;;;;;;;;;18.30;46.40;;;;;;8235965;28;19914;-48
2021/10/13 03:51:49;;;;;;;;;;;18.30;46.40;;;;;;8236441;28;20308;-49
2021/10/13 03:55:49;;;;;;;;;;;18.30;46.40;;;;;;8235865;28;19918;-49
2021/10/13 03:59:49;;;;;;;;;;;18.30;46.40;;;;;;8235349;28;20367;-49
2021/10/13 04:03:50;;;;;;;;;;;18.30;46.30;;;;;;8234986;28;20021;-49
2021/10/13 04:07:50;;;;;;;;;;;18.30;46.30;;;;;;8234935;28;19910;-49
2021/10/13 04:11:51;;;;;;;;;;;18.30;46.30;;;;;;8235035;28;19914;-49
2021/10/13 04:15:51;;;;;;;;;;;18.30;46.30;;;;;;8235434;28;19915;-50
2021/10/13 04:19:52;;;;;;;;;;;18.30;46.30;;;;;;8235077;28;19914;-50
2021/10/13 04:23:52;;;;;;;;;;;18.30;46.20;;;;;;8235256;28;19925;-49
2021/10/13 04:27:52;;;;;;;;;;;18.30;46.20;;;;;;8234239;28;20332;-50
2021/10/13 04:31:53;;;;;;;;;;;18.30;46.20;;;;;;8234674;28;19914;-49
2021/10/13 04:35:53;;;;;;;;;;;18.30;46.10;;;;;;8234885;28;19957;-53
2021/10/13 04:39:54;;;;;;;;;;;18.30;46.10;;;;;;8234794;28;19913;-48
2021/10/13 04:43:54;;;;;;;;;;;18.30;46.10;;;;;;8235238;28;19918;-51
2021/10/13 04:47:55;;;;;;;;;;;18.20;46.10;;;;;;8233833;28;19914;-49
2021/10/13 04:51:56;;;;;;;;;;;18.20;46.10;;;;;;8234706;28;20271;-49
2021/10/13 04:55:56;;;;;;;;;;;18.30;46.10;;;;;;8234310;28;20001;-49
2021/10/13 04:59:57;;;;;;;;;;;18.20;46.10;;;;;;8234207;28;20394;-50
2021/10/13 05:03:57;;;;;;;;;;;18.20;46.10;;;;;;8233712;28;20013;-49
2021/10/13 05:07:58;;;;;;;;;;;18.20;46.00;;;;;;8233708;28;19921;-48
2021/10/13 05:11:58;;;;;;;;;;;18.20;46.00;;;;;;8233303;28;19929;-49
2021/10/13 05:15:59;;;;;;;;;;;18.20;46.00;;;;;;8234110;28;20406;-49
2021/10/13 05:19:59;;;;;;;;;;;18.20;46.00;;;;;;8233513;28;19925;-50
2021/10/13 05:23:59;;;;;;;;;;;18.20;46.00;;;;;;8232856;28;20362;-49
2021/10/13 05:28:00;;;;;;;;;;;18.20;46.00;;;;;;8233342;28;19914;-49
2021/10/13 05:32:00;;;;;;;;;;;18.20;46.00;;;;;;8233200;28;19952;-49
2021/10/13 05:36:01;;;;;;;;;;;18.20;46.00;;;;;;8233462;28;19910;-48
2021/10/13 05:40:02;;;;;;;;;;;18.10;45.90;;;;;;8232178;28;19921;-48
2021/10/13 05:44:02;;;;;;;;;;;18.10;45.90;;;;;;8233056;28;19922;-49
2021/10/13 05:48:03;;;;;;;;;;;18.20;46.00;;;;;;8232455;28;19917;-48
2021/10/13 05:52:04;;;;;;;;;;;18.10;45.80;;;;;;8232955;28;19924;-48
2021/10/13 05:56:05;;;;;;;;;;;18.10;45.90;;;;;;8231335;28;19914;-49
2021/10/13 06:00:06;;;;;;;;;;;18.10;45.90;;;;;;8231028;28;19972;-49
2021/10/13 06:04:06;;;;;;;;;;;18.10;45.90;;;;;;8230960;28;20009;-50
2021/10/13 06:08:07;;;;;;;;;;;18.10;45.90;;;;;;8232045;28;19917;-49
2021/10/13 06:12:07;;;;;;;;;;;18.10;45.90;;;;;;8230734;28;20009;-49
2021/10/13 06:16:10;;;;;;;;;;;18.10;45.80;;;;;;8231308;28;19945;-48
2021/10/13 06:20:10;;;;;;;;;;;18.10;45.80;;;;;;8231348;28;19945;-49
2021/10/13 06:24:11;;;;;;;;;;;18.10;45.80;;;;;;8230409;28;19926;-49
2021/10/13 06:28:11;;;;;;;;;;;18.10;45.70;;;;;;8231536;28;19968;-49
2021/10/13 06:32:11;;;;;;;;;;;18.10;45.70;;;;;;8230804;28;19914;-48
2021/10/13 06:36:12;;;;;;;;;;;18.10;45.70;;;;;;8230598;28;20081;-47
2021/10/13 06:40:13;;;;;;;;;;;18.10;45.70;;;;;;8231242;28;19936;-47
2021/10/13 06:44:14;;;;;;;;;;;18.10;45.70;;;;;;8231401;28;19957;-49
2021/10/13 06:48:14;;;;;;;;;;;18.10;45.80;;;;;;8230461;28;19914;-48
2021/10/13 06:52:15;;;;;;;;;;;18.10;45.80;;;;;;8234906;28;20395;-49
2021/10/13 06:56:16;;;;;;;;;;;18.10;45.80;;;;;;8237283;28;20390;-49
2021/10/13 07:00:16;;;;;;;;;;;18.10;45.70;;;;;;8236497;28;19910;-49
2021/10/13 07:04:17;;;;;;;;;;;18.10;45.80;;;;;;8235876;28;19969;-49
2021/10/13 07:08:17;;;;;;;;;;;18.10;45.70;;;;;;8236349;28;19922;-48
2021/10/13 07:12:18;;;;;;;;;;;18.10;45.70;;;;;;8235442;28;19997;-49
2021/10/13 07:16:18;;;;;;;;;;;18.10;46.30;;;;;;8235590;28;20375;-49
2021/10/13 07:20:19;;;;;;;;;;;18.10;45.60;;;;;;8236523;28;19925;-52
2021/10/13 07:24:20;;;;;;;;;;;18.10;45.70;;;;;;8235032;28;19926;-48
2021/10/13 07:28:21;;;;;;;;;;;18.10;45.70;;;;;;8235675;28;19948;-49
2021/10/13 07:32:23;;;;;;;;;;;18.10;45.70;;;;;;8235280;28;20009;-48
2021/10/13 07:36:23;;;;;;;;;;;18.10;45.60;;;;;;8235330;28;19921;-49
2021/10/13 07:40:24;;;;;;;;;;;18.20;45.60;;;;;;8234895;28;19914;-48
2021/10/13 07:44:24;;;;;;;;;;;18.20;45.60;;;;;;8234447;28;19984;-49
2021/10/13 07:48:25;;;;;;;;;;;18.10;45.60;;;;;;8234093;28;19914;-48
2021/10/13 07:52:25;;;;;;;;;;;18.20;45.60;;;;;;8234692;28;19925;-49
2021/10/13 07:56:26;;;;;;;;;;;18.10;45.60;;;;;;8235008;28;19921;-48
2021/10/13 08:00:26;;;;;;;;;;;18.20;45.60;;;;;;8233775;28;19969;-48
2021/10/13 08:04:27;;;;;;;;;;;18.20;45.70;;;;;;8233125;28;20024;-48
2021/10/13 08:08:27;;;;;;;;;;;18.10;45.60;;;;;;8233805;28;19917;-49
2021/10/13 08:12:27;;;;;;;;;;;18.10;45.60;;;;;;8234075;28;20288;-49
2021/10/13 08:16:28;;;;;;;;;;;18.20;45.70;;;;;;8233722;28;20369;-49
2021/10/13 08:20:28;;;;;;;;;;;18.20;45.70;;;;;;8236071;28;19914;-48
2021/10/13 08:24:29;;;;;;;;;;;18.20;45.70;;;;;;8235234;28;19922;-47
2021/10/13 08:28:29;;;;;;;;;;;18.20;45.60;;;;;;8238311;28;19967;-47
2021/10/13 08:32:30;;;;;;;;;;;18.20;45.70;;;;;;8233459;28;20000;-51
2021/10/13 08:36:30;;;;;;;;;;;18.20;45.70;;;;;;8232621;28;20327;-47
2021/10/13 08:40:31;;;;;;;;;;;18.20;45.60;;;;;;8233249;28;20359;-51
2021/10/13 08:44:32;;;;;;;;;;;18.20;45.60;;;;;;8232804;28;19934;-48
2021/10/13 08:48:32;;;;;;;;;;;18.20;45.70;;;;;;8232910;28;19917;-49
2021/10/13 08:52:33;;;;;;;;;;;18.20;45.70;;;;;;8232809;28;19924;-49
2021/10/13 08:56:33;;;;;;;;;;;18.20;45.70;;;;;;8232444;28;19920;-49
2021/10/13 09:00:34;;;;;;;;;;;18.20;45.70;;;;;;8232153;28;19977;-48
2021/10/13 09:04:35;;;;;;;;;;;18.20;45.60;;;;;;8232929;28;19918;-48
2021/10/13 09:08:36;;;;;;;;;;;18.20;45.60;;;;;;8232302;28;19969;-50
2021/10/13 09:12:38;;;;;;;;;;;18.30;45.70;;;;;;8231429;28;19914;-49
2021/10/13 09:16:58;;;;;;;;;;;18.20;45.60;;;;;;8232140;28;19918;-49
2021/10/13 09:21:00;;;;;;;;;;;18.30;45.60;;;;;;8232447;28;19928;-50
2021/10/13 09:25:00;;;;;;;;;;;18.30;45.50;;;;;;8234500;28;19926;-48
2021/10/13 09:29:01;;;;;;;;;;;18.30;45.50;;;;;;8233315;28;19977;-49
2021/10/13 09:33:17;;;;;;;;;;;18.30;45.50;;;;;;8233026;28;19993;-48
2021/10/13 09:37:18;;;;;;;;;;;18.30;45.40;;;;;;8233579;28;19915;-50
2021/10/13 09:41:18;;;;;;;;;;;18.30;45.40;;;;;;8234033;28;20338;-47
2021/10/13 09:45:19;;;;;;;;;;;18.40;45.40;;;;;;8232855;28;19921;-48
2021/10/13 09:49:27;;;;;;;;;;;18.40;45.40;;;;;;8232965;28;19918;-47
2021/10/13 09:53:28;;;;;;;;;;;18.40;45.30;;;;;;8232836;28;19925;-49
2021/10/13 09:57:30;;;;;;;;;;;18.40;45.30;;;;;;8232333;28;19941;-48
2021/10/13 10:01:30;;;;;;;;;;;18.50;45.30;;;;;;8233770;28;21857;-49
2021/10/13 10:05:32;;;;;;;;;;;18.40;45.20;;;;;;8232873;28;19921;-49
2021/10/13 10:09:33;;;;;;;;;;;18.50;45.20;;;;;;8231551;28;19914;-49
2021/10/13 10:13:40;;;;;;;;;;;18.50;45.20;;;;;;8232501;28;19918;-48
2021/10/13 10:17:41;;;;;;;;;;;18.50;45.20;;;;;;8232959;28;19941;-50
2021/10/13 10:21:51;;;;;;;;;;;18.60;45.20;;;;;;8232709;28;19926;-50
2021/10/13 10:25:52;;;;;;;;;;;18.60;45.30;;;;;;8235093;28;19985;-49
2021/10/13 10:30:08;;;;;;;;;;;18.60;45.20;;;;;;8238157;28;19914;-49
2021/10/13 10:34:10;;;;;;;;;;;18.60;45.20;;;;;;8238442;28;20007;-48
2021/10/13 10:38:12;;;;;;;;;;;18.60;45.10;;;;;;8239139;28;19957;-49
2021/10/13 10:42:33;;;;;;;;;;;18.60;45.10;;;;;;8237828;28;19985;-48
2021/10/13 10:46:56;;;;;;;;;;;18.60;45.10;;;;;;8238048;28;20314;-49
2021/10/13 10:50:58;;;;;;;;;;;18.60;45.10;;;;;;8237664;28;19976;-48
2021/10/13 10:55:04;;;;;;;;;;;18.70;45.10;;;;;;8238192;28;20331;-50
2021/10/13 10:59:09;;;;;;;;;;;18.60;45.00;;;;;;8241024;28;20749;-48
2021/10/13 11:03:20;;;;;;;;;;;18.70;45.00;;;;;;8237182;28;19977;-49
2021/10/13 11:07:21;;;;;;;;;;;18.70;45.00;;;;;;8237837;28;20363;-49
2021/10/13 11:11:22;;;;;;;;;;;18.70;45.00;;;;;;8237318;28;19997;-50
2021/10/13 11:15:24;;;;;;;;;;;18.70;45.00;;;;;;8237098;28;20663;-49
2021/10/13 11:19:27;;;;;;;;;;;18.70;44.90;;;;;;8237790;28;19910;-47
2021/10/13 11:23:28;;;;;;;;;;;18.70;44.90;;;;;;8237051;28;19929;-50
2021/10/13 11:27:28;;;;;;;;;;;18.70;44.90;;;;;;8236608;28;20001;-48
2021/10/13 11:31:29;;;;;;;;;;;18.70;44.90;;;;;;8236754;28;20307;-50
2021/10/13 11:35:29;;;;;;;;;;;18.70;45.00;;;;;;8237275;28;19910;-48
2021/10/13 11:39:31;;;;;;;;;;;18.70;44.90;;;;;;8236151;28;19949;-49
2021/10/13 11:43:32;;;;;;;;;;;18.80;44.90;;;;;;8236569;28;19937;-49
2021/10/13 11:47:33;;;;;;;;;;;18.80;45.00;;;;;;8236333;28;19914;-52
2021/10/13 11:51:34;;;;;;;;;;;18.80;45.00;;;;;;8235660;28;20287;-48
2021/10/13 11:55:36;;;;;;;;;;;18.80;44.90;;;;;;8236902;28;19917;-51
2021/10/13 11:59:37;;;;;;;;;;;18.80;44.90;;;;;;8235687;28;19914;-49
2021/10/13 12:03:37;;;;;;;;;;;18.80;44.90;;;;;;8235363;28;19944;-49
2021/10/13 12:07:42;;;;;;;;;;;18.90;44.80;;;;;;8235840;28;19921;-49
2021/10/13 12:11:42;;;;;;;;;;;18.90;44.80;;;;;;8236041;28;19968;-49
2021/10/13 12:15:45;;;;;;;;;;;18.90;44.70;;;;;;8235695;28;19918;-49
2021/10/13 12:19:45;;;;;;;;;;;18.90;44.70;;;;;;8235403;28;19921;-49
2021/10/13 12:23:56;;;;;;;;;;;18.90;44.70;;;;;;8234759;28;20008;-49
2021/10/13 12:27:58;;;;;;;;;;;18.90;44.60;;;;;;8235398;28;19910;-53
2021/10/13 12:32:12;;;;;;;;;;;19.00;44.70;;;;;;8235670;28;20550;-49
2021/10/13 12:36:15;;;;;;;;;;;19.00;44.70;;;;;;8234567;28;19920;-49
2021/10/13 12:40:16;;;;;;;;;;;19.00;44.70;;;;;;8234820;28;19920;-49
2021/10/13 12:44:22;;;;;;;;;;;19.00;44.60;;;;;;8234371;28;20371;-51
2021/10/13 12:48:22;;;;;;;;;;;19.00;44.60;;;;;;8234522;28;19910;-50
2021/10/13 12:52:22;;;;;;;;;;;19.00;44.60;;;;;;8234460;28;20364;-50
2021/10/13 12:56:24;;;;;;;;;;;19.00;44.60;;;;;;8234194;28;19914;-49
2021/10/13 13:00:24;;;;;;;;;;;18.90;44.50;;;;;;8233921;28;19980;-49
2021/10/13 13:04:25;;;;;;;;;;;19.00;44.70;;;;;;8233969;28;19918;-52
2021/10/13 13:08:25;;;;;;;;;;;19.00;44.60;;;;;;8233847;28;19992;-48
2021/10/13 13:12:26;;;;;;;;;;;19.00;44.60;;;;;;8233469;28;20288;-49
2021/10/13 13:16:27;;;;;;;;;;;19.00;44.70;;;;;;8233797;28;20319;-49
2021/10/13 13:20:27;;;;;;;;;;;18.90;44.60;;;;;;8233652;28;19973;-49
2021/10/13 13:24:27;;;;;;;;;;;19.00;44.70;;;;;;8216051;28;19922;-52
2021/10/13 13:28:28;;;;;;;;;;;19.00;44.60;;;;;;8228966;28;20364;-50
2021/10/13 13:32:29;;;;;;;;;;;19.00;44.60;;;;;;8233880;28;19921;-49
2021/10/13 13:36:29;;;;;;;;;;;19.00;44.50;;;;;;8232870;28;19914;-50
2021/10/13 13:40:30;;;;;;;;;;;19.00;44.50;;;;;;8233704;28;19914;-49
2021/10/13 13:44:31;;;;;;;;;;;19.00;44.40;;;;;;8232901;28;19932;-50
2021/10/13 13:48:31;;;;;;;;;;;19.00;44.40;;;;;;8232586;28;19922;-50
2021/10/13 13:52:32;;;;;;;;;;;19.00;44.50;;;;;;8233438;28;20299;-52
2021/10/13 13:56:32;;;;;;;;;;;19.00;44.40;;;;;;8232860;28;19934;-49
2021/10/13 14:00:33;;;;;;;;;;;19.00;44.50;;;;;;8235054;28;19910;-52
2021/10/13 14:04:33;;;;;;;;;;;19.00;44.50;;;;;;8239383;28;19928;-50
2021/10/13 14:08:33;;;;;;;;;;;19.00;44.50;;;;;;8239343;28;19921;-52
2021/10/13 14:12:35;;;;;;;;;;;19.00;45.00;;;;;;8238537;28;19950;-51
2021/10/13 14:16:35;;;;;;;;;;;18.90;44.50;;;;;;8239676;28;19910;-52
2021/10/13 14:20:35;;;;;;;;;;;19.00;44.50;;;;;;8239530;28;19914;-49
2021/10/13 14:24:36;;;;;;;;;;;19.00;44.60;;;;;;8238288;28;19922;-49
2021/10/13 14:28:37;;;;;;;;;;;19.00;44.50;;;;;;8238728;28;19984;-52
2021/10/13 14:32:37;;;;;;;;;;;18.90;44.50;;;;;;8233541;28;19914;-51
2021/10/13 14:36:38;;;;;;;;;;;19.00;44.60;;;;;;8232519;28;20347;-50
2021/10/13 14:40:38;;;;;;;;;;;18.90;44.50;;;;;;8228855;28;20371;-50
2021/10/13 14:44:39;;;;;;;;;;;18.90;44.50;;;;;;8227122;28;19922;-48
2021/10/13 14:48:39;;;;;;;;;;;19.00;44.50;;;;;;8233576;28;19918;-49
2021/10/13 14:52:40;;;;;;;;;;;19.00;44.60;;;;;;8231269;28;19926;-51
2021/10/13 14:56:40;;;;;;;;;;;19.00;44.50;;;;;;8231616;28;19926;-50
2021/10/13 15:00:41;;;;;;;;;;;19.00;44.50;;;;;;8226182;28;19968;-50
2021/10/13 15:04:44;;;;;;;;;;;18.90;44.40;;;;;;8229467;28;19933;-50
2021/10/13 15:08:45;;;;;;;;;;;19.00;44.50;;;;;;8231957;28;20418;-49
2021/10/13 15:12:45;;;;;;;;;;;19.00;44.50;;;;;;8229194;28;19957;-50
2021/10/13 15:16:45;;;;;;;;;;;18.90;44.30;;;;;;8223301;28;19926;-49
2021/10/13 15:20:46;;;;;;;;;;;18.90;44.30;;;;;;8232703;28;20355;-49
2021/10/13 15:24:49;;;;;;;;;;;19.00;44.40;;;;;;8266358;28;19918;-49
2021/10/13 15:28:49;;;;;;;;;;;19.00;44.40;;;;;;8263472;28;20382;-48
2021/10/13 15:32:50;;;;;;;;;;;19.00;44.40;;;;;;8241745;28;19918;-50
2021/10/13 15:36:51;;;;;;;;;;;19.00;44.40;;;;;;8234529;28;19917;-50
2021/10/13 15:40:52;;;;;;;;;;;18.90;44.30;;;;;;8256448;28;19918;-50
2021/10/13 15:44:52;;;;;;;;;;;18.90;44.30;;;;;;8221211;28;20295;-50
2021/10/13 15:48:53;;;;;;;;;;;18.90;43.90;;;;;;8233441;28;19921;-51
2021/10/13 15:52:53;;;;;;;;;;;18.90;44.30;;;;;;8196855;28;1037129;-52
2021/10/13 15:56:54;;;;;;;;;;;18.90;44.60;;;;;;8234624;28;19913;-52
2021/10/13 16:00:54;;;;;;;;;;;18.90;44.50;;;;;;8236918;28;19914;-51
2021/10/13 16:04:55;;;;;;;;;;;18.90;44.50;;;;;;8235196;28;20009;-53
2021/10/13 16:08:55;;;;;;;;;;;18.90;44.40;;;;;;8234385;28;20328;-51
2021/10/13 16:12:56;;;;;;;;;;;18.90;44.50;;;;;;8235673;28;19949;-51
2021/10/13 16:16:56;;;;;;;;;;;18.90;44.40;;;;;;8234349;28;19997;-52
2021/10/13 16:20:57;;;;;;;;;;;18.90;44.40;;;;;;8234039;28;19964;-51
2021/10/13 16:24:57;;;;;;;;;;;18.90;44.40;;;;;;8232789;28;20005;-52
2021/10/13 16:28:58;;;;;;;;;;;18.90;44.40;;;;;;8234823;28;20008;-49
2021/10/13 16:32:58;;;;;;;;;;;18.90;44.40;;;;;;8234301;28;19914;-48
2021/10/13 16:36:58;;;;;;;;;;;18.90;44.40;;;;;;8234937;28;19913;-49
2021/10/13 16:40:59;;;;;;;;;;;18.90;44.40;;;;;;8233869;28;19914;-52
2021/10/13 16:44:59;;;;;;;;;;;18.90;44.40;;;;;;8233339;28;19930;-53
2021/10/13 16:49:00;;;;;;;;;;;18.90;44.40;;;;;;8234126;28;19918;-51
2021/10/13 16:53:00;;;;;;;;;;;18.90;44.40;;;;;;8234688;28;19926;-50
2021/10/13 16:57:01;;;;;;;;;;;18.90;44.50;;;;;;8233565;28;19914;-49
2021/10/13 17:01:02;;;;;;;;;;;18.90;44.50;;;;;;8233842;28;19918;-53
2021/10/13 17:05:02;;;;;;;;;;;18.90;44.50;;;;;;8233587;28;19925;-48
2021/10/13 17:09:03;;;;;;;;;;;18.90;44.50;;;;;;8233153;28;19962;-49
2021/10/13 17:13:04;;;;;;;;;;;18.90;44.50;;;;;;8233866;28;19917;-50
2021/10/13 17:17:04;;;;;;;;;;;18.80;44.50;;;;;;8232746;28;19914;-51
2021/10/13 17:21:06;;;;;;;;;;;18.80;44.50;;;;;;8232765;28;19961;-48
2021/10/13 17:25:06;;;;;;;;;;;18.80;44.50;;;;;;8233544;28;19922;-48
2021/10/13 17:29:07;;;;;;;;;;;18.90;44.50;;;;;;8234007;28;20355;-49
2021/10/13 17:33:07;;;;;;;;;;;18.90;44.50;;;;;;8232741;28;20368;-48
2021/10/13 17:37:08;;;;;;;;;;;18.80;44.50;;;;;;8233462;28;19918;-52
2021/10/13 17:41:08;;;;;;;;;;;18.80;44.60;;;;;;8221075;28;20001;-51
2021/10/13 17:45:10;;;;;;;;;;;18.80;44.50;;;;;;8232439;28;19921;-52
2021/10/13 17:49:13;;;;;;;;;;;18.80;44.60;;;;;;8200321;28;19918;-50
2021/10/13 17:53:13;;;;;;;;;;;18.80;44.50;;;;;;8224834;28;19925;-50
2021/10/13 17:57:13;;;;;;;;;;;18.90;44.50;;;;;;8231803;28;19914;-49
2021/10/13 18:01:14;;;;;;;;;;;18.90;44.50;;;;;;8232393;28;19935;-49
2021/10/13 18:05:14;;;;;;;;;;;18.80;44.50;;;;;;8232888;28;20339;-51
2021/10/13 18:09:15;;;;;;;;;;;18.80;44.50;;;;;;8232399;28;19921;-52
2021/10/13 18:13:15;;;;;;;;;;;18.80;44.50;;;;;;8232224;28;19914;-49
2021/10/13 18:17:16;;;;;;;;;;;18.80;44.50;;;;;;8232566;28;19914;-50
2021/10/13 18:21:16;;;;;;;;;;;18.80;44.50;;;;;;8232773;28;19956;-49
2021/10/13 18:25:17;;;;;;;;;;;18.80;44.60;;;;;;8231751;28;19922;-50
2021/10/13 18:29:18;;;;;;;;;;;18.80;44.60;;;;;;8230610;28;20349;-49
2021/10/13 18:33:18;;;;;;;;;;;18.80;44.60;;;;;;8231550;28;19980;-50
2021/10/13 18:37:19;;;;;;;;;;;18.80;44.60;;;;;;8232121;28;19957;-50
2021/10/13 18:41:19;;;;;;;;;;;18.80;44.60;;;;;;8232507;28;20310;-51
2021/10/13 18:45:19;;;;;;;;;;;18.80;44.60;;;;;;8231764;28;19969;-49
2021/10/13 18:49:20;;;;;;;;;;;18.80;44.50;;;;;;8238017;28;20387;-51
2021/10/13 18:53:20;;;;;;;;;;;18.80;44.50;;;;;;8238241;28;19933;-51
2021/10/13 18:57:21;;;;;;;;;;;18.80;44.50;;;;;;8237821;28;20290;-49
2021/10/13 19:01:21;;;;;;;;;;;18.80;44.60;;;;;;8237095;28;20367;-49
2021/10/13 19:05:22;;;;;;;;;;;18.80;44.60;;;;;;8237194;28;19922;-52
2021/10/13 19:09:22;;;;;;;;;;;18.80;44.50;;;;;;8236746;28;19921;-51
2021/10/13 19:13:23;;;;;;;;;;;18.80;44.60;;;;;;8237251;28;19910;-50
2021/10/13 19:17:23;;;;;;;;;;;18.80;44.50;;;;;;8233738;28;19914;-49
2021/10/13 19:21:27;;;;;;;;;;;18.80;44.50;;;;;;8228362;28;20364;-49
2021/10/13 19:25:28;;;;;;;;;;;18.80;44.50;;;;;;8235821;28;19969;-53
2021/10/13 19:29:29;;;;;;;;;;;18.70;44.40;;;;;;8236556;28;19921;-51
2021/10/13 19:33:29;;;;;;;;;;;18.70;44.40;;;;;;8237075;28;19917;-49
2021/10/13 19:37:30;;;;;;;;;;;18.70;44.40;;;;;;8236652;28;19924;-49
2021/10/13 19:41:30;;;;;;;;;;;18.70;44.40;;;;;;8236626;28;19965;-50
2021/10/13 19:45:31;;;;;;;;;;;18.70;44.50;;;;;;8236186;28;20021;-48
2021/10/13 19:49:31;;;;;;;;;;;18.70;44.50;;;;;;8237343;28;19913;-49
2021/10/13 19:53:32;;;;;;;;;;;18.70;44.50;;;;;;8236480;28;19918;-49
2021/10/13 19:57:32;;;;;;;;;;;18.70;44.40;;;;;;8234486;28;19949;-49
2021/10/13 20:01:32;;;;;;;;;;;18.70;44.40;;;;;;8235857;28;19996;-49
2021/10/13 20:05:33;;;;;;;;;;;18.70;44.40;;;;;;8236303;28;19997;-49
2021/10/13 20:09:33;;;;;;;;;;;18.70;44.50;;;;;;8235798;28;20004;-49
2021/10/13 20:13:34;;;;;;;;;;;18.70;45.00;;;;;;8235807;28;19914;-49
2021/10/13 20:17:34;;;;;;;;;;;18.70;44.50;;;;;;8235442;28;19938;-51
2021/10/13 20:21:35;;;;;;;;;;;18.70;44.40;;;;;;8234980;28;19914;-49
2021/10/13 20:25:35;;;;;;;;;;;18.70;44.40;;;;;;8236167;28;19918;-49
2021/10/13 20:29:36;;;;;;;;;;;18.70;44.30;;;;;;8235322;28;19941;-52
2021/10/13 20:33:38;;;;;;;;;;;18.70;44.30;;;;;;8234974;28;19968;-52
2021/10/13 20:37:38;;;;;;;;;;;18.70;44.30;;;;;;8236462;28;19914;-48
2021/10/13 20:41:39;;;;;;;;;;;18.70;44.40;;;;;;8236380;28;19910;-49
2021/10/13 20:45:40;;;;;;;;;;;18.70;44.30;;;;;;8235910;28;19988;-50
2021/10/13 20:49:40;;;;;;;;;;;18.60;44.40;;;;;;8235701;28;19972;-49
2021/10/13 20:53:41;;;;;;;;;;;18.60;44.40;;;;;;8234397;28;19934;-48
2021/10/13 20:57:44;;;;;;;;;;;18.60;44.30;;;;;;8234210;28;20319;-47
2021/10/13 21:01:45;;;;;;;;;;;18.60;44.40;;;;;;8234822;28;19910;-48
2021/10/13 21:05:45;;;;;;;;;;;18.60;44.30;;;;;;8233677;28;20407;-47
2021/10/13 21:09:46;;;;;;;;;;;18.60;44.30;;;;;;8233919;28;19996;-48
2021/10/13 21:13:46;;;;;;;;;;;18.60;44.20;;;;;;8233922;28;19947;-48
2021/10/13 21:17:47;;;;;;;;;;;18.60;44.20;;;;;;8234043;28;19910;-48
2021/10/13 21:21:47;;;;;;;;;;;18.60;44.20;;;;;;8233469;28;20367;-49
2021/10/13 21:25:48;;;;;;;;;;;18.60;44.30;;;;;;8233662;28;19918;-48
2021/10/13 21:29:48;;;;;;;;;;;18.60;44.30;;;;;;8233087;28;19921;-49
2021/10/13 21:33:49;;;;;;;;;;;18.60;44.30;;;;;;8234437;28;19910;-48
2021/10/13 21:37:53;;;;;;;;;;;18.60;44.30;;;;;;8233549;28;19921;-48
2021/10/13 21:41:53;;;;;;;;;;;18.60;44.40;;;;;;8232777;28;19960;-49
2021/10/13 21:45:54;;;;;;;;;;;18.50;44.20;;;;;;8233244;28;19914;-49
2021/10/13 21:49:54;;;;;;;;;;;18.50;44.20;;;;;;8233121;28;19922;-49
2021/10/13 21:53:54;;;;;;;;;;;18.50;44.20;;;;;;8233885;28;19918;-48
2021/10/13 21:57:55;;;;;;;;;;;18.50;44.20;;;;;;8232880;28;19914;-48
2021/10/13 22:01:55;;;;;;;;;;;18.50;44.20;;;;;;8232146;28;19913;-49
2021/10/13 22:05:57;;;;;;;;;;;18.50;44.20;;;;;;8232655;28;19964;-48
2021/10/13 22:09:57;;;;;;;;;;;18.50;44.20;;;;;;8233076;28;19910;-48
2021/10/13 22:13:58;;;;;;;;;;;18.40;44.20;;;;;;8232949;28;19914;-50
2021/10/13 22:17:58;;;;;;;;;;;18.50;44.30;;;;;;8232426;28;19921;-49
2021/10/13 22:21:59;;;;;;;;;;;18.50;44.30;;;;;;8235254;28;19960;-49
2021/10/13 22:25:59;;;;;;;;;;;18.40;44.20;;;;;;8239096;28;20000;-49
2021/10/13 22:30:00;;;;;;;;;;;18.50;44.20;;;;;;8239181;28;19918;-49
2021/10/13 22:34:00;;;;;;;;;;;18.50;44.20;;;;;;8238645;28;20391;-49
2021/10/13 22:38:02;;;;;;;;;;;18.40;44.20;;;;;;8238467;28;20013;-47
2021/10/13 22:42:03;;;;;;;;;;;18.40;44.20;;;;;;8238121;28;19925;-49
2021/10/13 22:46:03;;;;;;;;;;;18.40;44.20;;;;;;8239116;28;20001;-48
2021/10/13 22:50:04;;;;;;;;;;;18.40;44.20;;;;;;8238292;28;19921;-48
2021/10/13 22:54:15;;;;;;;;;;;18.40;44.20;;;;;;8238261;28;19926;-48
2021/10/13 22:58:15;;;;;;;;;;;18.40;44.20;;;;;;8240152;28;19910;-50
2021/10/13 23:02:16;;;;;;;;;;;18.40;44.20;;;;;;8238595;28;20386;-49
2021/10/13 23:06:17;;;;;;;;;;;18.40;44.20;;;;;;8237600;28;20308;-49
2021/10/13 23:10:17;;;;;;;;;;;18.40;44.10;;;;;;8237881;28;19914;-49
2021/10/13 23:14:18;;;;;;;;;;;18.40;44.20;;;;;;8237492;28;19965;-48
2021/10/13 23:18:21;;;;;;;;;;;18.40;44.20;;;;;;8237038;28;20382;-51
2021/10/13 23:22:21;;;;;;;;;;;18.30;44.10;;;;;;8238175;28;19935;-49